sensor_id;sensor_type;location;lat;lon;timestamp;P1;durP1;ratioP1;P2;durP2;ratioP2
57025;SDS011;43961;52.940;6.834;2023-10-19T00:01:15;5.47;;;4.07;;
57025;SDS011;43961;52.940;6.834;2023-10-19T00:03:41;10.38;;;3.28;;
57025;SDS011;43961;52.940;6.834;2023-10-19T00:06:09;8.52;;;6.25;;
57025;SDS011;43961;52.940;6.834;2023-10-19T00:08:36;7.15;;;6.50;;
57025;SDS011;43961;52.940;6.834;2023-10-19T00:11:12;6.22;;;3.60;;
57025;SDS011;43961;52.940;6.834;2023-10-19T00:13:47;5.72;;;4.97;;
57025;SDS011;43961;52.940;6.834;2023-10-19T00:16:15;4.57;;;4.25;;
57025;SDS011;43961;52.940;6.834;2023-10-19T00:18:45;13.20;;;5.28;;
57025;SDS011;43961;52.940;6.834;2023-10-19T00:21:18;6.53;;;4.97;;
57025;SDS011;43961;52.940;6.834;2023-10-19T00:23:43;6.20;;;5.68;;
57025;SDS011;43961;52.940;6.834;2023-10-19T00:28:50;14.88;;;7.15;;
57025;SDS011;43961;52.940;6.834;2023-10-19T00:31:21;7.15;;;5.90;;
57025;SDS011;43961;52.940;6.834;2023-10-19T00:33:47;4.45;;;3.85;;
57025;SDS011;43961;52.940;6.834;2023-10-19T00:36:16;6.18;;;5.60;;
57025;SDS011;43961;52.940;6.834;2023-10-19T00:38:45;6.22;;;5.63;;
57025;SDS011;43961;52.940;6.834;2023-10-19T00:41:15;10.50;;;6.75;;
57025;SDS011;43961;52.940;6.834;2023-10-19T00:43:53;6.82;;;6.30;;
57025;SDS011;43961;52.940;6.834;2023-10-19T00:46:30;7.95;;;7.18;;
57025;SDS011;43961;52.940;6.834;2023-10-19T00:49:09;5.97;;;5.43;;
57025;SDS011;43961;52.940;6.834;2023-10-19T00:54:36;6.97;;;5.55;;
57025;SDS011;43961;52.940;6.834;2023-10-19T00:57:30;11.00;;;5.88;;
57025;SDS011;43961;52.940;6.834;2023-10-19T00:59:59;5.85;;;5.25;;
57025;SDS011;43961;52.940;6.834;2023-10-19T01:02:47;9.05;;;6.20;;
57025;SDS011;43961;52.940;6.834;2023-10-19T01:05:16;4.13;;;3.72;;
57025;SDS011;43961;52.940;6.834;2023-10-19T01:07:46;8.05;;;5.80;;
57025;SDS011;43961;52.940;6.834;2023-10-19T01:10:18;11.07;;;4.70;;
57025;SDS011;43961;52.940;6.834;2023-10-19T01:12:48;5.75;;;5.25;;
57025;SDS011;43961;52.940;6.834;2023-10-19T01:15:16;5.72;;;5.10;;
57025;SDS011;43961;52.940;6.834;2023-10-19T01:17:50;8.10;;;4.57;;
57025;SDS011;43961;52.940;6.834;2023-10-19T01:20:19;6.43;;;4.65;;
57025;SDS011;43961;52.940;6.834;2023-10-19T01:31:09;14.77;;;7.18;;
57025;SDS011;43961;52.940;6.834;2023-10-19T01:33:47;8.25;;;6.82;;
57025;SDS011;43961;52.940;6.834;2023-10-19T01:36:13;5.97;;;5.28;;
57025;SDS011;43961;52.940;6.834;2023-10-19T01:39:05;8.60;;;7.63;;
57025;SDS011;43961;52.940;6.834;2023-10-19T01:41:34;5.65;;;5.07;;
57025;SDS011;43961;52.940;6.834;2023-10-19T01:44:01;3.72;;;3.25;;
57025;SDS011;43961;52.940;6.834;2023-10-19T01:46:31;3.58;;;2.95;;
57025;SDS011;43961;52.940;6.834;2023-10-19T01:48:59;6.65;;;6.05;;
57025;SDS011;43961;52.940;6.834;2023-10-19T01:51:29;9.30;;;5.25;;
57025;SDS011;43961;52.940;6.834;2023-10-19T01:54:04;13.45;;;6.47;;
57025;SDS011;43961;52.940;6.834;2023-10-19T01:56:33;4.85;;;4.43;;
57025;SDS011;43961;52.940;6.834;2023-10-19T01:59:01;6.63;;;5.70;;
57025;SDS011;43961;52.940;6.834;2023-10-19T02:01:28;9.20;;;4.78;;
57025;SDS011;43961;52.940;6.834;2023-10-19T02:03:55;8.02;;;5.68;;
57025;SDS011;43961;52.940;6.834;2023-10-19T02:06:26;7.53;;;4.90;;
57025;SDS011;43961;52.940;6.834;2023-10-19T02:09:02;6.88;;;3.97;;
57025;SDS011;43961;52.940;6.834;2023-10-19T02:11:35;6.05;;;5.35;;
57025;SDS011;43961;52.940;6.834;2023-10-19T02:14:06;7.78;;;6.18;;
57025;SDS011;43961;52.940;6.834;2023-10-19T02:16:39;6.18;;;4.38;;
57025;SDS011;43961;52.940;6.834;2023-10-19T02:19:06;4.40;;;3.97;;
57025;SDS011;43961;52.940;6.834;2023-10-19T02:21:32;10.02;;;5.30;;
57025;SDS011;43961;52.940;6.834;2023-10-19T02:24:03;4.13;;;3.58;;
57025;SDS011;43961;52.940;6.834;2023-10-19T02:26:29;3.92;;;3.72;;
57025;SDS011;43961;52.940;6.834;2023-10-19T02:28:57;24.77;;;6.05;;
57025;SDS011;43961;52.940;6.834;2023-10-19T02:31:23;10.15;;;4.18;;
57025;SDS011;43961;52.940;6.834;2023-10-19T02:33:53;7.90;;;5.60;;
57025;SDS011;43961;52.940;6.834;2023-10-19T02:36:29;5.97;;;5.38;;
57025;SDS011;43961;52.940;6.834;2023-10-19T02:38:56;7.63;;;5.93;;
57025;SDS011;43961;52.940;6.834;2023-10-19T02:41:25;3.47;;;3.28;;
57025;SDS011;43961;52.940;6.834;2023-10-19T02:43:52;3.63;;;3.38;;
57025;SDS011;43961;52.940;6.834;2023-10-19T02:46:34;7.50;;;3.30;;
57025;SDS011;43961;52.940;6.834;2023-10-19T02:49:07;4.78;;;4.38;;
57025;SDS011;43961;52.940;6.834;2023-10-19T02:51:44;22.08;;;6.60;;
57025;SDS011;43961;52.940;6.834;2023-10-19T02:54:11;6.80;;;5.35;;
57025;SDS011;43961;52.940;6.834;2023-10-19T02:56:43;4.20;;;2.85;;
57025;SDS011;43961;52.940;6.834;2023-10-19T02:59:12;3.70;;;3.03;;
57025;SDS011;43961;52.940;6.834;2023-10-19T03:01:40;5.43;;;4.00;;
57025;SDS011;43961;52.940;6.834;2023-10-19T03:04:09;2.55;;;2.35;;
57025;SDS011;43961;52.940;6.834;2023-10-19T03:06:37;5.18;;;4.00;;
57025;SDS011;43961;52.940;6.834;2023-10-19T03:09:05;4.15;;;3.53;;
57025;SDS011;43961;52.940;6.834;2023-10-19T03:11:47;6.93;;;3.95;;
57025;SDS011;43961;52.940;6.834;2023-10-19T03:14:17;6.30;;;5.00;;
57025;SDS011;43961;52.940;6.834;2023-10-19T03:16:43;5.47;;;5.00;;
57025;SDS011;43961;52.940;6.834;2023-10-19T03:19:10;5.40;;;4.10;;
57025;SDS011;43961;52.940;6.834;2023-10-19T03:21:38;4.80;;;3.92;;
57025;SDS011;43961;52.940;6.834;2023-10-19T03:24:11;4.10;;;3.20;;
57025;SDS011;43961;52.940;6.834;2023-10-19T03:27:00;5.80;;;4.95;;
57025;SDS011;43961;52.940;6.834;2023-10-19T03:29:25;3.97;;;2.85;;
57025;SDS011;43961;52.940;6.834;2023-10-19T03:31:56;3.88;;;3.67;;
57025;SDS011;43961;52.940;6.834;2023-10-19T03:34:24;3.28;;;3.05;;
57025;SDS011;43961;52.940;6.834;2023-10-19T03:36:50;2.92;;;2.63;;
57025;SDS011;43961;52.940;6.834;2023-10-19T03:39:17;3.30;;;3.10;;
57025;SDS011;43961;52.940;6.834;2023-10-19T03:41:43;2.55;;;2.35;;
57025;SDS011;43961;52.940;6.834;2023-10-19T03:44:13;5.28;;;3.28;;
57025;SDS011;43961;52.940;6.834;2023-10-19T03:46:49;2.63;;;2.22;;
57025;SDS011;43961;52.940;6.834;2023-10-19T03:49:26;2.60;;;2.40;;
57025;SDS011;43961;52.940;6.834;2023-10-19T03:52:03;3.05;;;2.17;;
57025;SDS011;43961;52.940;6.834;2023-10-19T03:54:45;4.57;;;2.72;;
57025;SDS011;43961;52.940;6.834;2023-10-19T03:57:15;3.13;;;2.85;;
57025;SDS011;43961;52.940;6.834;2023-10-19T03:59:46;2.65;;;2.45;;
57025;SDS011;43961;52.940;6.834;2023-10-19T04:02:19;3.70;;;3.20;;
57025;SDS011;43961;52.940;6.834;2023-10-19T04:04:55;2.58;;;2.38;;
57025;SDS011;43961;52.940;6.834;2023-10-19T04:07:22;2.15;;;1.27;;
57025;SDS011;43961;52.940;6.834;2023-10-19T04:09:53;2.95;;;1.98;;
57025;SDS011;43961;52.940;6.834;2023-10-19T04:12:32;2.15;;;2.05;;
57025;SDS011;43961;52.940;6.834;2023-10-19T04:15:06;4.07;;;2.67;;
57025;SDS011;43961;52.940;6.834;2023-10-19T04:17:42;2.55;;;1.75;;
57025;SDS011;43961;52.940;6.834;2023-10-19T04:20:08;1.52;;;1.42;;
57025;SDS011;43961;52.940;6.834;2023-10-19T04:22:44;1.77;;;1.67;;
57025;SDS011;43961;52.940;6.834;2023-10-19T04:25:11;2.13;;;1.73;;
57025;SDS011;43961;52.940;6.834;2023-10-19T04:27:41;2.90;;;2.67;;
57025;SDS011;43961;52.940;6.834;2023-10-19T04:30:17;1.10;;;1.08;;
57025;SDS011;43961;52.940;6.834;2023-10-19T04:32:52;2.95;;;2.15;;
57025;SDS011;43961;52.940;6.834;2023-10-19T04:35:18;2.50;;;1.90;;
57025;SDS011;43961;52.940;6.834;2023-10-19T04:37:48;2.13;;;2.03;;
57025;SDS011;43961;52.940;6.834;2023-10-19T04:40:16;2.88;;;2.28;;
57025;SDS011;43961;52.940;6.834;2023-10-19T04:42:41;3.13;;;2.90;;
57025;SDS011;43961;52.940;6.834;2023-10-19T04:45:07;1.88;;;1.75;;
57025;SDS011;43961;52.940;6.834;2023-10-19T04:47:34;1.60;;;1.42;;
57025;SDS011;43961;52.940;6.834;2023-10-19T04:50:07;9.02;;;2.13;;
57025;SDS011;43961;52.940;6.834;2023-10-19T04:52:35;2.47;;;2.25;;
57025;SDS011;43961;52.940;6.834;2023-10-19T04:55:02;4.05;;;3.40;;
57025;SDS011;43961;52.940;6.834;2023-10-19T04:57:28;3.65;;;2.08;;
57025;SDS011;43961;52.940;6.834;2023-10-19T04:59:53;5.80;;;4.32;;
57025;SDS011;43961;52.940;6.834;2023-10-19T05:02:20;3.30;;;3.00;;
57025;SDS011;43961;52.940;6.834;2023-10-19T05:04:46;1.63;;;1.52;;
57025;SDS011;43961;52.940;6.834;2023-10-19T05:07:12;2.53;;;2.33;;
57025;SDS011;43961;52.940;6.834;2023-10-19T05:09:41;1.35;;;1.17;;
57025;SDS011;43961;52.940;6.834;2023-10-19T05:12:10;1.30;;;1.20;;
57025;SDS011;43961;52.940;6.834;2023-10-19T05:14:37;2.53;;;1.90;;
57025;SDS011;43961;52.940;6.834;2023-10-19T05:17:08;2.35;;;2.13;;
57025;SDS011;43961;52.940;6.834;2023-10-19T05:19:38;1.92;;;1.33;;
57025;SDS011;43961;52.940;6.834;2023-10-19T05:22:05;1.33;;;1.27;;
57025;SDS011;43961;52.940;6.834;2023-10-19T05:24:34;0.73;;;0.73;;
57025;SDS011;43961;52.940;6.834;2023-10-19T05:29:26;3.50;;;2.05;;
57025;SDS011;43961;52.940;6.834;2023-10-19T05:31:53;0.80;;;0.73;;
57025;SDS011;43961;52.940;6.834;2023-10-19T05:34:22;1.15;;;1.15;;
57025;SDS011;43961;52.940;6.834;2023-10-19T05:36:49;2.95;;;2.00;;
57025;SDS011;43961;52.940;6.834;2023-10-19T05:39:15;1.98;;;1.67;;
57025;SDS011;43961;52.940;6.834;2023-10-19T05:41:41;2.28;;;1.85;;
57025;SDS011;43961;52.940;6.834;2023-10-19T05:44:07;2.00;;;1.90;;
57025;SDS011;43961;52.940;6.834;2023-10-19T05:46:33;1.77;;;1.67;;
57025;SDS011;43961;52.940;6.834;2023-10-19T05:48:59;3.40;;;3.10;;
57025;SDS011;43961;52.940;6.834;2023-10-19T05:51:26;2.50;;;2.40;;
57025;SDS011;43961;52.940;6.834;2023-10-19T05:53:52;2.38;;;2.20;;
57025;SDS011;43961;52.940;6.834;2023-10-19T05:56:19;2.65;;;1.13;;
57025;SDS011;43961;52.940;6.834;2023-10-19T05:58:46;1.75;;;1.60;;
57025;SDS011;43961;52.940;6.834;2023-10-19T06:03:48;1.00;;;1.00;;
57025;SDS011;43961;52.940;6.834;2023-10-19T06:06:29;1.70;;;1.65;;
57025;SDS011;43961;52.940;6.834;2023-10-19T06:08:54;2.33;;;1.23;;
57025;SDS011;43961;52.940;6.834;2023-10-19T06:11:20;1.65;;;1.65;;
57025;SDS011;43961;52.940;6.834;2023-10-19T06:13:46;2.38;;;2.05;;
57025;SDS011;43961;52.940;6.834;2023-10-19T06:16:13;1.35;;;1.25;;
57025;SDS011;43961;52.940;6.834;2023-10-19T06:18:40;1.35;;;1.30;;
57025;SDS011;43961;52.940;6.834;2023-10-19T06:21:08;1.15;;;1.10;;
57025;SDS011;43961;52.940;6.834;2023-10-19T06:23:35;1.17;;;1.17;;
57025;SDS011;43961;52.940;6.834;2023-10-19T06:26:08;1.20;;;1.10;;
57025;SDS011;43961;52.940;6.834;2023-10-19T06:28:36;1.38;;;1.27;;
57025;SDS011;43961;52.940;6.834;2023-10-19T06:31:04;2.65;;;2.45;;
57025;SDS011;43961;52.940;6.834;2023-10-19T06:33:30;0.80;;;0.80;;
57025;SDS011;43961;52.940;6.834;2023-10-19T06:35:58;1.80;;;1.70;;
57025;SDS011;43961;52.940;6.834;2023-10-19T06:38:24;1.55;;;1.42;;
57025;SDS011;43961;52.940;6.834;2023-10-19T06:40:51;3.25;;;1.67;;
57025;SDS011;43961;52.940;6.834;2023-10-19T06:43:17;1.52;;;1.42;;
57025;SDS011;43961;52.940;6.834;2023-10-19T06:45:45;0.65;;;0.60;;
57025;SDS011;43961;52.940;6.834;2023-10-19T06:48:11;1.30;;;1.23;;
57025;SDS011;43961;52.940;6.834;2023-10-19T06:50:37;4.68;;;2.03;;
57025;SDS011;43961;52.940;6.834;2023-10-19T06:53:03;0.90;;;0.90;;
57025;SDS011;43961;52.940;6.834;2023-10-19T06:55:30;2.03;;;1.77;;
57025;SDS011;43961;52.940;6.834;2023-10-19T06:57:56;2.63;;;1.42;;
57025;SDS011;43961;52.940;6.834;2023-10-19T07:00:24;2.25;;;1.63;;
57025;SDS011;43961;52.940;6.834;2023-10-19T07:02:52;1.50;;;1.40;;
57025;SDS011;43961;52.940;6.834;2023-10-19T07:05:20;1.65;;;1.55;;
57025;SDS011;43961;52.940;6.834;2023-10-19T07:07:47;1.35;;;1.25;;
57025;SDS011;43961;52.940;6.834;2023-10-19T07:12:43;2.75;;;1.42;;
57025;SDS011;43961;52.940;6.834;2023-10-19T07:15:10;2.28;;;1.33;;
57025;SDS011;43961;52.940;6.834;2023-10-19T07:17:39;3.45;;;1.65;;
57025;SDS011;43961;52.940;6.834;2023-10-19T07:20:06;1.27;;;1.13;;
57025;SDS011;43961;52.940;6.834;2023-10-19T07:22:34;1.27;;;1.13;;
57025;SDS011;43961;52.940;6.834;2023-10-19T07:25:04;2.83;;;1.50;;
57025;SDS011;43961;52.940;6.834;2023-10-19T07:27:31;1.98;;;1.85;;
57025;SDS011;43961;52.940;6.834;2023-10-19T07:29:58;1.23;;;1.13;;
57025;SDS011;43961;52.940;6.834;2023-10-19T07:32:25;1.30;;;1.20;;
57025;SDS011;43961;52.940;6.834;2023-10-19T07:34:51;2.10;;;1.38;;
57025;SDS011;43961;52.940;6.834;2023-10-19T07:37:16;1.70;;;1.60;;
57025;SDS011;43961;52.940;6.834;2023-10-19T07:39:48;3.60;;;1.60;;
57025;SDS011;43961;52.940;6.834;2023-10-19T07:42:16;1.10;;;1.10;;
57025;SDS011;43961;52.940;6.834;2023-10-19T07:44:42;1.00;;;0.90;;
57025;SDS011;43961;52.940;6.834;2023-10-19T07:47:08;1.50;;;1.40;;
57025;SDS011;43961;52.940;6.834;2023-10-19T07:49:37;1.52;;;1.42;;
57025;SDS011;43961;52.940;6.834;2023-10-19T07:52:06;0.77;;;0.77;;
57025;SDS011;43961;52.940;6.834;2023-10-19T07:54:35;1.70;;;1.65;;
57025;SDS011;43961;52.940;6.834;2023-10-19T07:57:02;1.13;;;1.13;;
57025;SDS011;43961;52.940;6.834;2023-10-19T07:59:31;0.70;;;0.70;;
57025;SDS011;43961;52.940;6.834;2023-10-19T08:01:57;0.70;;;0.70;;
57025;SDS011;43961;52.940;6.834;2023-10-19T08:04:26;1.77;;;1.63;;
57025;SDS011;43961;52.940;6.834;2023-10-19T08:06:53;1.25;;;1.15;;
57025;SDS011;43961;52.940;6.834;2023-10-19T08:09:18;1.55;;;1.45;;
57025;SDS011;43961;52.940;6.834;2023-10-19T08:11:48;1.52;;;0.63;;
57025;SDS011;43961;52.940;6.834;2023-10-19T08:14:21;1.05;;;1.05;;
57025;SDS011;43961;52.940;6.834;2023-10-19T08:16:49;2.05;;;1.50;;
57025;SDS011;43961;52.940;6.834;2023-10-19T08:19:16;2.53;;;2.22;;
57025;SDS011;43961;52.940;6.834;2023-10-19T08:21:41;1.90;;;1.58;;
57025;SDS011;43961;52.940;6.834;2023-10-19T08:24:07;0.80;;;0.80;;
57025;SDS011;43961;52.940;6.834;2023-10-19T08:26:39;2.55;;;1.50;;
57025;SDS011;43961;52.940;6.834;2023-10-19T08:29:07;1.92;;;1.05;;
57025;SDS011;43961;52.940;6.834;2023-10-19T08:31:38;0.70;;;0.70;;
57025;SDS011;43961;52.940;6.834;2023-10-19T08:34:08;1.65;;;1.50;;
57025;SDS011;43961;52.940;6.834;2023-10-19T08:36:40;0.68;;;0.68;;
57025;SDS011;43961;52.940;6.834;2023-10-19T08:39:08;2.05;;;1.75;;
57025;SDS011;43961;52.940;6.834;2023-10-19T08:41:37;1.50;;;1.42;;
57025;SDS011;43961;52.940;6.834;2023-10-19T08:44:07;1.83;;;1.65;;
57025;SDS011;43961;52.940;6.834;2023-10-19T08:46:40;1.23;;;1.23;;
57025;SDS011;43961;52.940;6.834;2023-10-19T08:49:11;0.80;;;0.80;;
57025;SDS011;43961;52.940;6.834;2023-10-19T08:51:38;1.85;;;1.75;;
57025;SDS011;43961;52.940;6.834;2023-10-19T08:54:05;1.25;;;1.08;;
57025;SDS011;43961;52.940;6.834;2023-10-19T08:56:31;1.10;;;1.05;;
57025;SDS011;43961;52.940;6.834;2023-10-19T08:58:58;2.67;;;1.77;;
57025;SDS011;43961;52.940;6.834;2023-10-19T09:01:27;2.30;;;1.50;;
57025;SDS011;43961;52.940;6.834;2023-10-19T09:03:56;1.00;;;1.00;;
57025;SDS011;43961;52.940;6.834;2023-10-19T09:06:26;1.35;;;1.25;;
57025;SDS011;43961;52.940;6.834;2023-10-19T09:08:54;1.50;;;1.40;;
57025;SDS011;43961;52.940;6.834;2023-10-19T09:11:20;1.52;;;1.48;;
57025;SDS011;43961;52.940;6.834;2023-10-19T09:13:51;2.85;;;2.65;;
57025;SDS011;43961;52.940;6.834;2023-10-19T09:16:18;0.70;;;0.70;;
57025;SDS011;43961;52.940;6.834;2023-10-19T09:18:48;0.93;;;0.93;;
57025;SDS011;43961;52.940;6.834;2023-10-19T09:21:18;1.40;;;1.30;;
57025;SDS011;43961;52.940;6.834;2023-10-19T09:23:53;2.00;;;1.83;;
57025;SDS011;43961;52.940;6.834;2023-10-19T09:26:21;2.65;;;1.98;;
57025;SDS011;43961;52.940;6.834;2023-10-19T09:28:48;3.00;;;2.75;;
57025;SDS011;43961;52.940;6.834;2023-10-19T09:31:14;2.13;;;1.42;;
57025;SDS011;43961;52.940;6.834;2023-10-19T09:33:42;1.55;;;1.45;;
57025;SDS011;43961;52.940;6.834;2023-10-19T09:36:11;1.38;;;1.27;;
57025;SDS011;43961;52.940;6.834;2023-10-19T09:38:50;1.58;;;1.48;;
57025;SDS011;43961;52.940;6.834;2023-10-19T09:41:22;2.63;;;2.08;;
57025;SDS011;43961;52.940;6.834;2023-10-19T09:43:53;2.20;;;1.73;;
57025;SDS011;43961;52.940;6.834;2023-10-19T09:46:29;1.98;;;1.85;;
57025;SDS011;43961;52.940;6.834;2023-10-19T09:48:58;1.10;;;1.08;;
57025;SDS011;43961;52.940;6.834;2023-10-19T09:51:24;1.60;;;1.50;;
57025;SDS011;43961;52.940;6.834;2023-10-19T09:56:26;1.08;;;1.08;;
57025;SDS011;43961;52.940;6.834;2023-10-19T09:59:40;0.70;;;0.70;;
57025;SDS011;43961;52.940;6.834;2023-10-19T10:04:33;3.88;;;1.55;;
57025;SDS011;43961;52.940;6.834;2023-10-19T10:07:04;3.90;;;2.13;;
57025;SDS011;43961;52.940;6.834;2023-10-19T10:09:32;1.98;;;1.75;;
57025;SDS011;43961;52.940;6.834;2023-10-19T10:12:15;1.77;;;1.10;;
57025;SDS011;43961;52.940;6.834;2023-10-19T10:14:52;6.65;;;2.55;;
57025;SDS011;43961;52.940;6.834;2023-10-19T10:17:27;1.80;;;1.70;;
57025;SDS011;43961;52.940;6.834;2023-10-19T10:22:42;1.00;;;1.00;;
57025;SDS011;43961;52.940;6.834;2023-10-19T10:25:08;2.55;;;2.20;;
57025;SDS011;43961;52.940;6.834;2023-10-19T10:27:52;1.60;;;1.50;;
57025;SDS011;43961;52.940;6.834;2023-10-19T10:30:19;2.85;;;2.65;;
57025;SDS011;43961;52.940;6.834;2023-10-19T10:32:51;1.88;;;1.77;;
57025;SDS011;43961;52.940;6.834;2023-10-19T10:38:07;2.45;;;2.33;;
57025;SDS011;43961;52.940;6.834;2023-10-19T10:40:46;2.17;;;1.98;;
57025;SDS011;43961;52.940;6.834;2023-10-19T10:43:13;2.58;;;2.38;;
57025;SDS011;43961;52.940;6.834;2023-10-19T10:45:39;2.45;;;2.25;;
57025;SDS011;43961;52.940;6.834;2023-10-19T10:48:10;2.30;;;2.15;;
57025;SDS011;43961;52.940;6.834;2023-10-19T10:50:40;1.88;;;1.58;;
57025;SDS011;43961;52.940;6.834;2023-10-19T10:53:07;3.15;;;2.95;;
57025;SDS011;43961;52.940;6.834;2023-10-19T10:55:33;15.57;;;2.97;;
57025;SDS011;43961;52.940;6.834;2023-10-19T10:57:59;2.53;;;2.35;;
57025;SDS011;43961;52.940;6.834;2023-10-19T11:00:25;3.75;;;3.30;;
57025;SDS011;43961;52.940;6.834;2023-10-19T11:05:33;1.60;;;1.50;;
57025;SDS011;43961;52.940;6.834;2023-10-19T11:08:13;2.20;;;1.83;;
57025;SDS011;43961;52.940;6.834;2023-10-19T11:10:41;3.28;;;1.52;;
57025;SDS011;43961;52.940;6.834;2023-10-19T11:13:11;5.25;;;2.05;;
57025;SDS011;43961;52.940;6.834;2023-10-19T11:15:38;1.42;;;1.38;;
57025;SDS011;43961;52.940;6.834;2023-10-19T11:18:12;0.93;;;0.93;;
57025;SDS011;43961;52.940;6.834;2023-10-19T11:21:08;2.95;;;2.42;;
57025;SDS011;43961;52.940;6.834;2023-10-19T11:26:22;2.63;;;2.38;;
57025;SDS011;43961;52.940;6.834;2023-10-19T11:28:58;1.25;;;1.25;;
57025;SDS011;43961;52.940;6.834;2023-10-19T11:31:26;1.60;;;1.50;;
57025;SDS011;43961;52.940;6.834;2023-10-19T11:33:53;1.17;;;1.08;;
57025;SDS011;43961;52.940;6.834;2023-10-19T11:36:23;3.20;;;3.00;;
57025;SDS011;43961;52.940;6.834;2023-10-19T11:38:50;2.67;;;2.30;;
57025;SDS011;43961;52.940;6.834;2023-10-19T11:41:17;2.55;;;2.35;;
57025;SDS011;43961;52.940;6.834;2023-10-19T11:43:47;3.67;;;2.53;;
57025;SDS011;43961;52.940;6.834;2023-10-19T11:46:14;1.83;;;1.63;;
57025;SDS011;43961;52.940;6.834;2023-10-19T11:48:42;4.45;;;3.05;;
57025;SDS011;43961;52.940;6.834;2023-10-19T11:51:09;3.67;;;2.53;;
57025;SDS011;43961;52.940;6.834;2023-10-19T11:53:40;2.47;;;1.90;;
57025;SDS011;43961;52.940;6.834;2023-10-19T11:56:08;5.40;;;2.88;;
57025;SDS011;43961;52.940;6.834;2023-10-19T11:58:36;3.05;;;2.88;;
57025;SDS011;43961;52.940;6.834;2023-10-19T12:01:05;2.53;;;1.80;;
57025;SDS011;43961;52.940;6.834;2023-10-19T12:03:36;2.70;;;2.45;;
57025;SDS011;43961;52.940;6.834;2023-10-19T12:06:06;3.70;;;2.67;;
57025;SDS011;43961;52.940;6.834;2023-10-19T12:08:35;3.75;;;3.40;;
57025;SDS011;43961;52.940;6.834;2023-10-19T12:11:02;3.08;;;2.88;;
57025;SDS011;43961;52.940;6.834;2023-10-19T12:13:29;2.75;;;2.55;;
57025;SDS011;43961;52.940;6.834;2023-10-19T12:15:56;3.72;;;2.67;;
57025;SDS011;43961;52.940;6.834;2023-10-19T12:18:23;4.05;;;3.72;;
57025;SDS011;43961;52.940;6.834;2023-10-19T12:23:21;3.05;;;2.72;;
57025;SDS011;43961;52.940;6.834;2023-10-19T12:25:48;3.75;;;3.45;;
57025;SDS011;43961;52.940;6.834;2023-10-19T12:28:14;10.43;;;2.72;;
57025;SDS011;43961;52.940;6.834;2023-10-19T12:30:40;5.03;;;3.88;;
57025;SDS011;43961;52.940;6.834;2023-10-19T12:33:06;7.38;;;3.85;;
57025;SDS011;43961;52.940;6.834;2023-10-19T12:35:39;4.38;;;3.25;;
57025;SDS011;43961;52.940;6.834;2023-10-19T12:38:11;4.38;;;3.72;;
57025;SDS011;43961;52.940;6.834;2023-10-19T12:40:44;8.80;;;4.30;;
57025;SDS011;43961;52.940;6.834;2023-10-19T12:43:11;3.67;;;3.10;;
57025;SDS011;43961;52.940;6.834;2023-10-19T12:45:39;8.60;;;3.47;;
57025;SDS011;43961;52.940;6.834;2023-10-19T12:48:05;4.20;;;3.78;;
57025;SDS011;43961;52.940;6.834;2023-10-19T12:50:33;2.80;;;2.58;;
57025;SDS011;43961;52.940;6.834;2023-10-19T12:53:00;4.63;;;3.58;;
57025;SDS011;43961;52.940;6.834;2023-10-19T12:55:27;4.05;;;3.65;;
57025;SDS011;43961;52.940;6.834;2023-10-19T12:57:55;3.70;;;3.47;;
57025;SDS011;43961;52.940;6.834;2023-10-19T13:00:31;4.72;;;4.32;;
57025;SDS011;43961;52.940;6.834;2023-10-19T13:03:09;4.00;;;3.70;;
57025;SDS011;43961;52.940;6.834;2023-10-19T13:05:38;5.22;;;4.72;;
57025;SDS011;43961;52.940;6.834;2023-10-19T13:08:09;4.63;;;3.90;;
57025;SDS011;43961;52.940;6.834;2023-10-19T13:10:38;2.78;;;2.58;;
57025;SDS011;43961;52.940;6.834;2023-10-19T13:13:07;3.03;;;2.53;;
57025;SDS011;43961;52.940;6.834;2023-10-19T13:15:38;4.15;;;3.78;;
57025;SDS011;43961;52.940;6.834;2023-10-19T13:18:06;4.35;;;3.00;;
57025;SDS011;43961;52.940;6.834;2023-10-19T13:20:32;2.97;;;2.75;;
57025;SDS011;43961;52.940;6.834;2023-10-19T13:23:02;1.63;;;1.52;;
57025;SDS011;43961;52.940;6.834;2023-10-19T13:25:37;3.92;;;2.67;;
57025;SDS011;43961;52.940;6.834;2023-10-19T13:28:10;3.53;;;1.88;;
57025;SDS011;43961;52.940;6.834;2023-10-19T13:30:57;1.80;;;1.73;;
57025;SDS011;43961;52.940;6.834;2023-10-19T13:33:22;3.63;;;3.33;;
57025;SDS011;43961;52.940;6.834;2023-10-19T13:35:51;4.03;;;3.47;;
57025;SDS011;43961;52.940;6.834;2023-10-19T13:38:18;4.22;;;3.15;;
57025;SDS011;43961;52.940;6.834;2023-10-19T13:40:47;3.70;;;3.40;;
57025;SDS011;43961;52.940;6.834;2023-10-19T13:43:15;5.22;;;4.38;;
57025;SDS011;43961;52.940;6.834;2023-10-19T13:45:43;3.88;;;3.60;;
57025;SDS011;43961;52.940;6.834;2023-10-19T13:48:10;3.35;;;2.95;;
57025;SDS011;43961;52.940;6.834;2023-10-19T13:50:40;6.80;;;3.13;;
57025;SDS011;43961;52.940;6.834;2023-10-19T13:53:13;3.90;;;3.58;;
57025;SDS011;43961;52.940;6.834;2023-10-19T13:55:42;3.90;;;3.05;;
57025;SDS011;43961;52.940;6.834;2023-10-19T13:58:08;7.90;;;4.63;;
57025;SDS011;43961;52.940;6.834;2023-10-19T14:00:34;3.15;;;2.92;;
57025;SDS011;43961;52.940;6.834;2023-10-19T14:03:07;4.10;;;2.90;;
57025;SDS011;43961;52.940;6.834;2023-10-19T14:08:04;4.00;;;3.58;;
57025;SDS011;43961;52.940;6.834;2023-10-19T14:10:32;3.63;;;3.33;;
57025;SDS011;43961;52.940;6.834;2023-10-19T14:12:58;3.78;;;3.47;;
57025;SDS011;43961;52.940;6.834;2023-10-19T14:15:24;7.10;;;4.82;;
57025;SDS011;43961;52.940;6.834;2023-10-19T14:20:21;5.50;;;4.05;;
57025;SDS011;43961;52.940;6.834;2023-10-19T14:22:50;2.33;;;2.15;;
57025;SDS011;43961;52.940;6.834;2023-10-19T14:25:18;4.43;;;3.47;;
57025;SDS011;43961;52.940;6.834;2023-10-19T14:27:47;8.50;;;3.60;;
57025;SDS011;43961;52.940;6.834;2023-10-19T14:30:14;3.53;;;3.30;;
57025;SDS011;43961;52.940;6.834;2023-10-19T14:32:41;2.78;;;2.60;;
57025;SDS011;43961;52.940;6.834;2023-10-19T14:35:09;5.18;;;3.17;;
57025;SDS011;43961;52.940;6.834;2023-10-19T14:37:39;11.55;;;3.47;;
57025;SDS011;43961;52.940;6.834;2023-10-19T14:40:12;6.10;;;5.55;;
57025;SDS011;43961;52.940;6.834;2023-10-19T14:42:40;8.30;;;4.43;;
57025;SDS011;43961;52.940;6.834;2023-10-19T14:45:16;6.60;;;5.20;;
57025;SDS011;43961;52.940;6.834;2023-10-19T14:47:52;6.38;;;4.10;;
57025;SDS011;43961;52.940;6.834;2023-10-19T14:50:29;4.50;;;3.65;;
57025;SDS011;43961;52.940;6.834;2023-10-19T14:52:55;4.63;;;4.00;;
57025;SDS011;43961;52.940;6.834;2023-10-19T14:55:21;3.80;;;3.30;;
57025;SDS011;43961;52.940;6.834;2023-10-19T14:57:51;3.70;;;3.05;;
57025;SDS011;43961;52.940;6.834;2023-10-19T15:00:20;4.75;;;4.20;;
57025;SDS011;43961;52.940;6.834;2023-10-19T15:02:50;2.60;;;2.47;;
57025;SDS011;43961;52.940;6.834;2023-10-19T15:05:17;2.72;;;2.53;;
57025;SDS011;43961;52.940;6.834;2023-10-19T15:07:45;4.35;;;4.05;;
57025;SDS011;43961;52.940;6.834;2023-10-19T15:10:17;3.13;;;2.90;;
57025;SDS011;43961;52.940;6.834;2023-10-19T15:12:44;4.78;;;3.08;;
57025;SDS011;43961;52.940;6.834;2023-10-19T15:15:10;3.90;;;3.30;;
57025;SDS011;43961;52.940;6.834;2023-10-19T15:17:43;5.05;;;4.30;;
57025;SDS011;43961;52.940;6.834;2023-10-19T15:20:10;3.70;;;3.22;;
57025;SDS011;43961;52.940;6.834;2023-10-19T15:22:37;6.88;;;4.55;;
57025;SDS011;43961;52.940;6.834;2023-10-19T15:25:06;4.40;;;3.53;;
57025;SDS011;43961;52.940;6.834;2023-10-19T15:27:36;4.38;;;3.97;;
57025;SDS011;43961;52.940;6.834;2023-10-19T15:30:03;6.60;;;6.00;;
57025;SDS011;43961;52.940;6.834;2023-10-19T15:32:30;5.38;;;4.88;;
57025;SDS011;43961;52.940;6.834;2023-10-19T15:34:57;6.07;;;5.28;;
57025;SDS011;43961;52.940;6.834;2023-10-19T15:37:22;3.80;;;3.53;;
57025;SDS011;43961;52.940;6.834;2023-10-19T15:39:51;3.30;;;3.00;;
57025;SDS011;43961;52.940;6.834;2023-10-19T15:42:17;3.40;;;3.15;;
57025;SDS011;43961;52.940;6.834;2023-10-19T15:44:44;6.97;;;5.07;;
57025;SDS011;43961;52.940;6.834;2023-10-19T15:47:10;6.38;;;5.43;;